createdAt,value
2023-04-15T00:01:13.063Z,2.10
2023-04-15T00:03:40.344Z,2.00
2023-04-15T00:06:07.789Z,2.00
2023-04-15T00:08:34.967Z,2.00
2023-04-15T00:11:05.749Z,1.90
2023-04-15T00:13:34.275Z,1.90
2023-04-15T00:16:02.329Z,1.80
2023-04-15T00:18:30.140Z,1.70
2023-04-15T00:20:57.251Z,1.70
2023-04-15T00:23:24.654Z,1.60
2023-04-15T00:25:52.077Z,1.60
2023-04-15T00:28:19.255Z,1.50
2023-04-15T00:30:46.478Z,1.50
2023-04-15T00:33:16.513Z,1.50
2023-04-15T00:35:43.818Z,1.40
2023-04-15T00:38:11.582Z,1.40
2023-04-15T00:40:39.632Z,1.40
2023-04-15T00:43:07.154Z,1.40
2023-04-15T00:45:34.370Z,1.40
2023-04-15T00:48:01.870Z,1.30
2023-04-15T00:50:29.033Z,1.30
2023-04-15T00:52:56.245Z,1.30
2023-04-15T00:55:23.749Z,1.20
2023-04-15T00:57:51.990Z,1.20
2023-04-15T01:00:20.396Z,1.20
2023-04-15T01:02:47.891Z,1.20
2023-04-15T01:05:18.732Z,1.10
2023-04-15T01:07:47.964Z,1.10
2023-04-15T01:10:15.115Z,1.10
2023-04-15T01:12:43.400Z,1.00
2023-04-15T01:15:11.282Z,1.00
2023-04-15T01:17:39.455Z,0.90
2023-04-15T01:20:10.196Z,0.90
2023-04-15T01:22:37.572Z,0.90
2023-04-15T01:25:20.460Z,0.90
2023-04-15T01:27:47.787Z,0.80
2023-04-15T01:30:15.719Z,0.90
2023-04-15T01:32:43.993Z,0.90
2023-04-15T01:35:11.109Z,0.90
2023-04-15T01:37:38.213Z,0.90
2023-04-15T01:40:08.048Z,0.90
2023-04-15T01:42:37.660Z,0.90
2023-04-15T01:45:05.457Z,0.90
2023-04-15T01:47:32.711Z,0.90
2023-04-15T01:49:59.888Z,0.90
2023-04-15T01:52:27.034Z,0.80
2023-04-15T01:54:54.164Z,0.80
2023-04-15T01:57:21.536Z,0.80
2023-04-15T01:59:48.666Z,0.80
2023-04-15T02:02:16.332Z,0.70
2023-04-15T02:04:43.551Z,0.80
2023-04-15T02:07:10.596Z,0.80
2023-04-15T02:09:37.662Z,0.90
2023-04-15T02:12:06.121Z,0.80
2023-04-15T02:14:33.206Z,0.80
2023-04-15T02:17:07.244Z,0.80
2023-04-15T02:19:37.468Z,0.70
2023-04-15T02:22:04.581Z,0.70
2023-04-15T02:24:31.802Z,0.60
2023-04-15T02:26:59.000Z,0.60
2023-04-15T02:29:26.273Z,0.50
2023-04-15T02:31:53.629Z,0.60
2023-04-15T02:34:20.765Z,0.70
2023-04-15T02:36:49.650Z,0.70
2023-04-15T02:39:18.710Z,0.60
2023-04-15T02:41:47.897Z,0.50
2023-04-15T02:44:15.150Z,0.40
2023-04-15T02:46:42.237Z,0.40
2023-04-15T02:49:09.594Z,0.40
2023-04-15T02:51:36.696Z,0.40
2023-04-15T02:54:04.567Z,0.40
2023-04-15T02:56:31.777Z,0.40
2023-04-15T02:58:59.004Z,0.40
2023-04-15T03:01:26.529Z,0.40
2023-04-15T03:03:53.689Z,0.50
2023-04-15T03:06:20.830Z,0.40
2023-04-15T03:08:47.955Z,0.40
2023-04-15T03:11:16.338Z,0.40
2023-04-15T03:13:43.515Z,0.30
2023-04-15T03:16:11.347Z,0.30
2023-04-15T03:18:38.591Z,0.30
2023-04-15T03:21:06.713Z,0.40
2023-04-15T03:23:33.853Z,0.30
2023-04-15T03:26:04.872Z,0.30
2023-04-15T03:28:32.821Z,0.30
2023-04-15T03:31:00.717Z,0.40
2023-04-15T03:33:27.892Z,0.30
2023-04-15T03:35:54.985Z,0.30
2023-04-15T03:38:22.073Z,0.30
2023-04-15T03:40:49.155Z,0.30
2023-04-15T03:43:16.655Z,0.30
2023-04-15T03:45:43.796Z,0.30
2023-04-15T03:48:17.653Z,0.30
2023-04-15T03:50:46.450Z,0.30
2023-04-15T03:53:13.536Z,0.30
2023-04-15T03:55:40.683Z,0.30
2023-04-15T03:58:07.942Z,0.30
2023-04-15T04:00:34.975Z,0.30
2023-04-15T04:03:02.290Z,0.40
2023-04-15T04:05:29.749Z,0.50
2023-04-15T04:07:56.940Z,0.50
2023-04-15T04:10:24.006Z,0.50
2023-04-15T04:12:52.405Z,0.60
2023-04-15T04:15:19.496Z,0.70
2023-04-15T04:17:46.903Z,0.70
2023-04-15T04:20:14.045Z,0.80
2023-04-15T04:22:41.481Z,0.80
2023-04-15T04:25:10.355Z,0.80
2023-04-15T04:27:37.583Z,0.80
2023-04-15T04:30:07.376Z,0.70
2023-04-15T04:32:34.608Z,0.70
2023-04-15T04:35:01.719Z,0.60
2023-04-15T04:37:28.894Z,0.50
2023-04-15T04:39:56.246Z,0.50
2023-04-15T04:42:23.477Z,0.40
2023-04-15T04:44:50.580Z,0.40
2023-04-15T04:47:17.682Z,0.40
2023-04-15T04:49:45.340Z,0.40
2023-04-15T04:52:12.974Z,0.30
2023-04-15T04:54:41.140Z,0.30
2023-04-15T04:57:08.302Z,0.30
2023-04-15T04:59:35.413Z,0.30
2023-04-15T05:02:03.463Z,0.30
2023-04-15T05:04:32.083Z,0.30
2023-04-15T05:06:59.854Z,0.30
2023-04-15T05:09:26.917Z,0.40
2023-04-15T05:11:54.364Z,0.40
2023-04-15T05:14:23.349Z,0.30
2023-04-15T05:16:50.542Z,0.30
2023-04-15T05:19:17.630Z,0.40
2023-04-15T05:21:44.789Z,0.30
2023-04-15T05:24:11.949Z,0.40
2023-04-15T05:26:39.078Z,0.50
2023-04-15T05:29:06.361Z,0.60
2023-04-15T05:31:33.564Z,0.70
2023-04-15T05:34:02.625Z,0.60
2023-04-15T05:36:29.673Z,0.60
2023-04-15T05:38:56.780Z,0.50
2023-04-15T05:41:24.058Z,0.50
2023-04-15T05:43:51.241Z,0.40
2023-04-15T05:46:18.434Z,0.40
2023-04-15T05:48:45.649Z,0.40
2023-04-15T05:51:12.814Z,0.50
2023-04-15T05:53:41.693Z,0.40
2023-04-15T05:56:08.780Z,0.50
2023-04-15T05:58:35.973Z,0.50
2023-04-15T06:01:04.061Z,0.60
2023-04-15T06:03:31.422Z,0.60
2023-04-15T06:05:58.657Z,0.60
2023-04-15T06:08:25.952Z,0.70
2023-04-15T06:10:53.084Z,0.70
2023-04-15T06:13:20.247Z,0.80
2023-04-15T06:15:47.518Z,0.90
2023-04-15T06:18:14.647Z,1.00
2023-04-15T06:20:41.914Z,1.10
2023-04-15T06:23:09.019Z,1.20
2023-04-15T06:25:36.130Z,1.30
2023-04-15T06:28:03.317Z,1.40
2023-04-15T06:30:30.648Z,1.50
2023-04-15T06:32:58.148Z,1.70
2023-04-15T06:35:25.216Z,1.80
2023-04-15T06:37:52.850Z,1.90
2023-04-15T06:40:20.078Z,2.00
2023-04-15T06:42:47.201Z,2.10
2023-04-15T06:45:14.449Z,2.20
2023-04-15T06:47:42.168Z,2.30
2023-04-15T06:50:10.190Z,2.40
2023-04-15T06:52:37.610Z,2.50
2023-04-15T06:55:05.564Z,2.80
2023-04-15T06:57:34.913Z,3.00
2023-04-15T07:00:02.720Z,3.10
2023-04-15T07:02:29.960Z,3.20
2023-04-15T07:04:57.200Z,3.40
2023-04-15T07:07:24.273Z,3.60
2023-04-15T07:09:52.326Z,3.80
2023-04-15T07:12:19.812Z,4.00
2023-04-15T07:14:46.904Z,4.20
2023-04-15T07:17:14.157Z,4.40
2023-04-15T07:19:41.352Z,4.60
2023-04-15T07:22:08.516Z,4.90
2023-04-15T07:24:35.667Z,4.80
2023-04-15T07:27:04.172Z,4.90
2023-04-15T07:29:31.604Z,5.00
2023-04-15T07:31:58.798Z,5.00
2023-04-15T07:34:26.023Z,5.10
2023-04-15T07:36:53.153Z,5.40
2023-04-15T07:39:20.509Z,5.70
2023-04-15T07:41:47.757Z,5.80
2023-04-15T07:44:14.988Z,6.00
2023-04-15T07:46:42.161Z,6.10
2023-04-15T07:49:09.372Z,6.20
2023-04-15T07:51:37.346Z,6.40
2023-04-15T07:54:04.791Z,6.60
2023-04-15T07:56:32.729Z,6.80
2023-04-15T07:59:02.356Z,7.00
2023-04-15T08:01:29.742Z,7.40
2023-04-15T08:03:57.326Z,7.60
2023-04-15T08:06:24.540Z,7.80
2023-04-15T08:08:52.133Z,8.10
2023-04-15T08:11:19.453Z,8.30
2023-04-15T08:13:47.733Z,8.60
2023-04-15T08:16:27.673Z,8.90
2023-04-15T08:18:57.898Z,9.00
2023-04-15T08:21:25.386Z,9.30
2023-04-15T08:23:53.846Z,9.40
2023-04-15T08:26:21.723Z,9.60
2023-04-15T08:28:49.956Z,9.90
2023-04-15T08:31:18.864Z,10.10
2023-04-15T08:33:47.799Z,10.30
2023-04-15T08:36:15.047Z,10.50
2023-04-15T08:38:42.246Z,10.60
2023-04-15T08:41:35.905Z,10.70
2023-04-15T08:44:06.298Z,10.90
2023-04-15T08:46:34.942Z,11.00
2023-04-15T08:49:05.274Z,11.20
2023-04-15T08:51:34.067Z,11.40
2023-04-15T08:54:02.627Z,11.70
2023-04-15T08:56:34.732Z,11.80
2023-04-15T08:59:02.856Z,11.80
2023-04-15T09:01:30.297Z,12.00
2023-04-15T09:03:59.500Z,12.10
2023-04-15T09:06:27.239Z,12.20
2023-04-15T09:08:54.906Z,12.20
2023-04-15T09:11:23.026Z,12.30
2023-04-15T09:13:50.775Z,12.40
2023-04-15T09:16:19.031Z,12.50
2023-04-15T09:18:46.328Z,12.70
2023-04-15T09:21:16.681Z,12.90
2023-04-15T09:24:00.097Z,12.90
2023-04-15T09:26:38.122Z,13.00
2023-04-15T09:29:10.627Z,13.20
2023-04-15T09:31:37.949Z,13.00
2023-04-15T09:34:05.813Z,13.10
2023-04-15T09:36:49.790Z,13.20
2023-04-15T09:39:18.156Z,13.20
2023-04-15T09:41:45.431Z,13.10
2023-04-15T09:44:26.474Z,12.90
2023-04-15T09:46:53.705Z,12.80
2023-04-15T09:49:21.120Z,12.90
2023-04-15T09:52:04.134Z,13.00
2023-04-15T09:54:37.819Z,13.00
2023-04-15T09:57:10.875Z,13.20
2023-04-15T09:59:38.106Z,13.50
2023-04-15T10:02:09.276Z,13.50
2023-04-15T10:04:40.787Z,13.70
2023-04-15T10:07:09.985Z,13.80
2023-04-15T10:09:38.705Z,14.00
2023-04-15T10:12:06.294Z,14.00
2023-04-15T10:14:36.532Z,14.00
2023-04-15T10:17:05.861Z,14.10
2023-04-15T10:19:37.329Z,14.20
2023-04-15T10:22:04.974Z,14.10
2023-04-15T10:24:32.529Z,13.80
2023-04-15T10:27:01.367Z,13.60
2023-04-15T10:29:28.702Z,13.50
2023-04-15T10:31:57.046Z,13.40
2023-04-15T10:34:25.750Z,13.30
2023-04-15T10:36:59.154Z,13.20
2023-04-15T10:39:39.910Z,13.20
2023-04-15T10:42:16.663Z,13.00
2023-04-15T10:44:49.572Z,13.10
2023-04-15T10:47:20.597Z,13.20
2023-04-15T10:49:50.485Z,13.20
2023-04-15T10:52:23.737Z,13.30
2023-04-15T10:54:50.912Z,13.40
2023-04-15T10:57:23.760Z,13.40
2023-04-15T11:00:06.527Z,13.10
2023-04-15T11:02:45.257Z,13.00
2023-04-15T11:05:16.976Z,12.90
2023-04-15T11:07:48.789Z,12.90
2023-04-15T11:10:21.203Z,12.70
2023-04-15T11:12:57.759Z,12.80
2023-04-15T11:15:40.564Z,12.70
2023-04-15T11:18:30.162Z,12.70
2023-04-15T11:21:08.417Z,12.70
2023-04-15T11:23:47.020Z,12.90
2023-04-15T11:26:15.457Z,13.20
2023-04-15T11:28:45.124Z,13.20
2023-04-15T11:31:15.246Z,13.30
2023-04-15T11:34:02.434Z,13.50
2023-04-15T11:36:32.246Z,14.00
2023-04-15T11:39:00.553Z,15.00
2023-04-15T11:41:27.886Z,15.50
2023-04-15T11:43:55.101Z,15.80
2023-04-15T11:46:29.637Z,16.00
2023-04-15T11:48:56.764Z,16.30
2023-04-15T11:51:23.994Z,16.10
2023-04-15T11:53:52.124Z,15.90
2023-04-15T11:56:26.245Z,15.70
2023-04-15T11:59:01.266Z,15.70
2023-04-15T12:01:42.484Z,15.20
2023-04-15T12:04:23.519Z,14.80
2023-04-15T12:06:52.437Z,14.80
2023-04-15T12:09:21.765Z,14.60
2023-04-15T12:11:58.357Z,14.30
2023-04-15T12:14:28.491Z,14.00
2023-04-15T12:17:03.161Z,13.70
2023-04-15T12:19:38.186Z,13.40
2023-04-15T12:22:10.998Z,13.20
2023-04-15T12:24:39.098Z,13.10
2023-04-15T12:27:08.661Z,12.90
2023-04-15T12:29:39.219Z,13.00
2023-04-15T12:32:14.797Z,13.00
2023-04-15T12:34:56.704Z,13.10
2023-04-15T12:37:24.037Z,13.00
2023-04-15T12:39:52.386Z,13.10
2023-04-15T12:42:19.902Z,13.30
2023-04-15T12:44:47.406Z,13.50
2023-04-15T12:47:14.932Z,13.90
2023-04-15T12:49:42.383Z,14.00
2023-04-15T12:52:09.735Z,13.90
2023-04-15T12:54:37.314Z,13.70
2023-04-15T12:57:06.903Z,13.50
2023-04-15T12:59:35.193Z,13.10
2023-04-15T13:02:03.276Z,13.10
2023-04-15T13:04:31.481Z,12.70
2023-04-15T13:07:00.318Z,12.50
2023-04-15T13:09:27.405Z,12.40
2023-04-15T13:11:54.819Z,12.20
2023-04-15T13:14:22.125Z,12.20
2023-04-15T13:16:49.377Z,12.00
2023-04-15T13:19:16.561Z,12.00
2023-04-15T13:21:43.635Z,12.00
2023-04-15T13:24:10.700Z,11.90
2023-04-15T13:26:38.111Z,11.90
2023-04-15T13:29:05.666Z,12.20
2023-04-15T13:31:32.923Z,12.40
2023-04-15T13:34:00.183Z,12.30
2023-04-15T13:36:27.568Z,11.90
2023-04-15T13:38:54.981Z,11.70
2023-04-15T13:41:22.135Z,11.50
2023-04-15T13:43:49.183Z,11.20
2023-04-15T13:46:16.809Z,11.10
2023-04-15T13:48:43.988Z,11.20
2023-04-15T13:51:11.138Z,11.00
2023-04-15T13:53:39.808Z,10.80
2023-04-15T13:56:08.780Z,10.60
2023-04-15T13:58:37.268Z,10.60
2023-04-15T14:01:07.700Z,10.60
2023-04-15T14:03:36.947Z,10.50
2023-04-15T14:06:07.797Z,10.50
2023-04-15T14:08:36.391Z,10.50
2023-04-15T14:11:03.456Z,10.60
2023-04-15T14:13:30.841Z,10.50
2023-04-15T14:15:59.382Z,10.50
2023-04-15T14:18:26.717Z,10.50
2023-04-15T14:20:54.064Z,10.40
2023-04-15T14:23:22.819Z,10.20
2023-04-15T14:25:52.202Z,10.10
2023-04-15T14:28:20.704Z,10.10
2023-04-15T14:30:47.925Z,10.00
2023-04-15T14:33:15.037Z,9.90
2023-04-15T14:35:42.169Z,9.90
2023-04-15T14:38:11.540Z,9.80
2023-04-15T14:40:39.205Z,9.70
2023-04-15T14:43:06.287Z,9.70
2023-04-15T14:45:33.651Z,9.80
2023-04-15T14:48:01.080Z,9.90
2023-04-15T14:50:28.788Z,9.90
2023-04-15T14:52:56.082Z,9.90
2023-04-15T14:55:23.187Z,10.00
2023-04-15T14:57:50.335Z,10.10
2023-04-15T15:00:17.659Z,10.10
2023-04-15T15:02:45.067Z,9.90
2023-04-15T15:05:12.532Z,9.80
2023-04-15T15:07:41.138Z,9.70
2023-04-15T15:10:08.744Z,9.50
2023-04-15T15:12:35.959Z,9.50
2023-04-15T15:15:12.276Z,9.40
2023-04-15T15:17:43.237Z,9.30
2023-04-15T15:20:11.077Z,9.20
2023-04-15T15:22:38.204Z,9.20
2023-04-15T15:25:06.381Z,9.20
2023-04-15T15:27:33.662Z,9.30
2023-04-15T15:30:00.869Z,9.40
2023-04-15T15:32:28.048Z,9.50
2023-04-15T15:34:55.395Z,9.50
2023-04-15T15:37:22.473Z,9.40
2023-04-15T15:39:50.845Z,9.30
2023-04-15T15:42:20.196Z,9.20
2023-04-15T15:44:49.278Z,9.00
2023-04-15T15:47:17.177Z,8.90
2023-04-15T15:49:44.525Z,8.90
2023-04-15T15:52:12.035Z,8.80
2023-04-15T15:54:41.317Z,8.70
2023-04-15T15:57:08.664Z,8.70
2023-04-15T15:59:35.885Z,8.70
2023-04-15T16:02:03.268Z,8.70
2023-04-15T16:04:30.655Z,8.50
2023-04-15T16:06:58.022Z,8.50
2023-04-15T16:09:25.146Z,8.50
2023-04-15T16:11:52.352Z,8.50
2023-04-15T16:14:19.772Z,8.40
2023-04-15T16:16:47.076Z,8.30
2023-04-15T16:19:14.214Z,8.30
2023-04-15T16:21:41.446Z,8.30
2023-04-15T16:24:08.504Z,8.30
2023-04-15T16:26:35.566Z,8.30
2023-04-15T16:29:03.450Z,8.30
2023-04-15T16:31:31.417Z,8.30
2023-04-15T16:33:58.588Z,8.20
2023-04-15T16:36:26.066Z,8.20
2023-04-15T16:38:53.319Z,8.20
2023-04-15T16:41:20.954Z,8.20
2023-04-15T16:43:48.001Z,8.20
2023-04-15T16:46:15.149Z,8.20
2023-04-15T16:48:42.283Z,8.20
2023-04-15T16:51:09.385Z,8.20
2023-04-15T16:53:36.543Z,8.10
2023-04-15T16:56:03.687Z,8.10
2023-04-15T16:58:30.716Z,8.00
2023-04-15T17:00:58.876Z,7.90
2023-04-15T17:03:26.535Z,7.90
2023-04-15T17:05:53.697Z,7.90
2023-04-15T17:08:20.761Z,7.80
2023-04-15T17:10:47.942Z,7.80
2023-04-15T17:13:15.025Z,7.80
2023-04-15T17:15:42.411Z,7.80
2023-04-15T17:18:10.671Z,7.70
2023-04-15T17:20:39.729Z,7.70
2023-04-15T17:23:06.804Z,7.70
2023-04-15T17:25:33.952Z,7.70
2023-04-15T17:28:01.422Z,7.60
2023-04-15T17:30:28.524Z,7.60
2023-04-15T17:32:56.809Z,7.60
2023-04-15T17:35:25.704Z,7.60
2023-04-15T17:37:52.727Z,7.60
2023-04-15T17:40:21.801Z,7.50
2023-04-15T17:42:51.530Z,7.50
2023-04-15T17:45:19.295Z,7.50
2023-04-15T17:47:46.577Z,7.50
2023-04-15T17:50:13.769Z,7.60
2023-04-15T17:52:41.455Z,7.50
2023-04-15T17:55:09.294Z,7.50
2023-04-15T17:57:36.682Z,7.50
2023-04-15T18:00:04.325Z,7.50
2023-04-15T18:02:33.235Z,7.50
2023-04-15T18:05:01.868Z,7.50
2023-04-15T18:07:29.174Z,7.50
2023-04-15T18:09:56.721Z,7.40
2023-04-15T18:12:23.761Z,7.40
2023-04-15T18:14:50.910Z,7.40
2023-04-15T18:17:18.292Z,7.40
2023-04-15T18:19:46.000Z,7.40
2023-04-15T18:22:13.143Z,7.40
2023-04-15T18:24:40.866Z,7.40
2023-04-15T18:27:10.301Z,7.30
2023-04-15T18:29:37.350Z,7.30
2023-04-15T18:32:04.585Z,7.40
2023-04-15T18:34:31.752Z,7.30
2023-04-15T18:36:59.024Z,7.40
2023-04-15T18:39:28.508Z,7.40
2023-04-15T18:41:57.277Z,7.40
2023-04-15T18:44:24.491Z,7.30
2023-04-15T18:46:51.746Z,7.40
2023-04-15T18:49:18.825Z,7.40
2023-04-15T18:51:46.511Z,7.30
2023-04-15T18:54:13.633Z,7.40
2023-04-15T18:56:40.815Z,7.40
2023-04-15T18:59:28.444Z,7.40
2023-04-15T19:01:55.756Z,7.40
2023-04-15T19:04:25.910Z,7.30
2023-04-15T19:06:52.991Z,7.40
2023-04-15T19:09:20.227Z,7.40
2023-04-15T19:11:47.761Z,7.40
2023-04-15T19:14:14.817Z,7.40
2023-04-15T19:16:41.927Z,7.40
2023-04-15T19:19:09.089Z,7.30
2023-04-15T19:21:36.186Z,7.30
2023-04-15T19:24:03.389Z,7.30
2023-04-15T19:26:30.565Z,7.30
2023-04-15T19:28:58.978Z,7.40
2023-04-15T19:31:26.637Z,7.40
2023-04-15T19:33:53.706Z,7.40
2023-04-15T19:36:20.806Z,7.40
2023-04-15T19:38:47.955Z,7.40
2023-04-15T19:41:16.016Z,7.40
2023-04-15T19:43:43.153Z,7.40
2023-04-15T19:46:13.297Z,7.40
2023-04-15T19:48:40.700Z,7.40
2023-04-15T19:51:07.820Z,7.30
2023-04-15T19:53:35.070Z,7.40
2023-04-15T19:56:02.287Z,7.40
2023-04-15T19:58:29.680Z,7.40
2023-04-15T20:00:57.314Z,7.40
2023-04-15T20:03:24.596Z,7.40
2023-04-15T20:05:52.783Z,7.40
2023-04-15T20:08:20.058Z,7.40
2023-04-15T20:10:47.292Z,7.40
2023-04-15T20:13:15.430Z,7.40
2023-04-15T20:15:42.792Z,7.40
2023-04-15T20:18:10.051Z,7.40
2023-04-15T20:20:41.701Z,7.40
2023-04-15T20:23:08.869Z,7.40
2023-04-15T20:25:36.562Z,7.40
2023-04-15T20:28:03.779Z,7.40
2023-04-15T20:30:31.122Z,7.30
2023-04-15T20:32:58.332Z,7.30
2023-04-15T20:35:28.183Z,7.30
2023-04-15T20:37:56.256Z,7.40
2023-04-15T20:40:23.380Z,7.40
2023-04-15T20:42:51.912Z,7.40
2023-04-15T20:45:20.583Z,7.40
2023-04-15T20:47:47.759Z,7.30
2023-04-15T20:50:15.034Z,7.30
2023-04-15T20:52:42.255Z,7.40
2023-04-15T20:55:09.672Z,7.40
2023-04-15T20:57:36.740Z,7.40
2023-04-15T21:00:05.128Z,7.40
2023-04-15T21:02:32.421Z,7.40
2023-04-15T21:04:59.718Z,7.30
2023-04-15T21:07:26.862Z,7.40
2023-04-15T21:09:55.341Z,7.30
2023-04-15T21:12:22.469Z,7.40
2023-04-15T21:14:50.669Z,7.30
2023-04-15T21:17:17.802Z,7.30
2023-04-15T21:19:44.939Z,7.30
2023-04-15T21:22:12.122Z,7.30
2023-04-15T21:24:39.250Z,7.30
2023-04-15T21:27:06.486Z,7.30
2023-04-15T21:29:34.935Z,7.30
2023-04-15T21:32:04.401Z,7.30
2023-04-15T21:34:31.673Z,7.30
2023-04-15T21:36:59.270Z,7.30
2023-04-15T21:39:26.496Z,7.30
2023-04-15T21:41:53.640Z,7.40
2023-04-15T21:44:20.920Z,7.40
2023-04-15T21:46:48.176Z,7.40
2023-04-15T21:49:16.059Z,7.40
2023-04-15T21:51:43.248Z,7.40
2023-04-15T21:54:10.414Z,7.40
2023-04-15T21:56:38.051Z,7.40
2023-04-15T21:59:05.378Z,7.40
2023-04-15T22:01:32.698Z,7.40
2023-04-15T22:04:00.145Z,7.30
2023-04-15T22:06:27.554Z,7.30
2023-04-15T22:08:57.474Z,7.30
2023-04-15T22:11:28.817Z,7.30
2023-04-15T22:13:57.472Z,7.30
2023-04-15T22:16:28.121Z,7.30
2023-04-15T22:18:55.962Z,7.30
2023-04-15T22:21:23.652Z,7.30
2023-04-15T22:23:52.201Z,7.30
2023-04-15T22:26:19.489Z,7.30
2023-04-15T22:28:46.568Z,7.30
2023-04-15T22:31:14.966Z,7.30
2023-04-15T22:33:42.293Z,7.30
2023-04-15T22:36:09.395Z,7.30
2023-04-15T22:38:36.529Z,7.30
2023-04-15T22:41:03.612Z,7.40
2023-04-15T22:43:30.671Z,7.30
2023-04-15T22:45:57.930Z,7.30
2023-04-15T22:48:25.106Z,7.30
2023-04-15T22:50:52.886Z,7.30
2023-04-15T22:53:20.305Z,7.30
2023-04-15T22:55:48.698Z,7.40
2023-04-15T22:58:17.176Z,7.40
2023-04-15T23:00:44.880Z,7.40
2023-04-15T23:03:12.469Z,7.40
2023-04-15T23:05:41.320Z,7.40
2023-04-15T23:08:08.787Z,7.40
2023-04-15T23:10:35.922Z,7.40
2023-04-15T23:13:03.074Z,7.30
2023-04-15T23:15:30.205Z,7.40
2023-04-15T23:17:57.404Z,7.40
2023-04-15T23:20:24.486Z,7.40
2023-04-15T23:22:51.623Z,7.30
2023-04-15T23:25:22.263Z,7.30
2023-04-15T23:27:49.375Z,7.30
2023-04-15T23:30:16.651Z,7.30
2023-04-15T23:32:43.871Z,7.30
2023-04-15T23:35:11.341Z,7.30
2023-04-15T23:37:38.504Z,7.20
2023-04-15T23:40:06.592Z,7.20
2023-04-15T23:42:33.722Z,7.20
2023-04-15T23:45:00.941Z,7.20
2023-04-15T23:47:28.099Z,7.20
2023-04-15T23:49:55.295Z,7.20
2023-04-15T23:52:22.898Z,7.20
2023-04-15T23:54:49.979Z,7.20
2023-04-15T23:57:18.754Z,7.20
2023-04-15T23:59:46.343Z,7.30
